createdAt,value
2019-04-22T00:03:12.979Z,51.30
2019-04-22T00:07:41.979Z,51.20
2019-04-22T00:11:54.672Z,51.20
2019-04-22T00:15:54.112Z,51.10
2019-04-22T00:20:04.922Z,51.10
2019-04-22T00:25:03.447Z,50.50
2019-04-22T00:29:34.498Z,50.30
2019-04-22T00:33:19.179Z,50.60
2019-04-22T00:37:23.574Z,51.10
2019-04-22T00:41:34.157Z,51.10
2019-04-22T00:45:38.540Z,51.20
2019-04-22T00:53:48.089Z,51.10
2019-04-22T00:57:56.322Z,51.40
2019-04-22T01:02:03.594Z,51.30
2019-04-22T01:06:10.344Z,51.50
2019-04-22T01:16:09.430Z,50.60
2019-04-22T01:20:45.461Z,51.00
2019-04-22T01:24:12.111Z,51.20
2019-04-22T01:28:10.842Z,51.30
2019-04-22T01:32:05.821Z,50.40
2019-04-22T01:36:24.624Z,50.50
2019-04-22T01:40:45.175Z,50.70
2019-04-22T01:44:47.122Z,51.20
2019-04-22T01:48:57.802Z,51.30
2019-04-22T01:53:06.385Z,51.30
2019-04-22T01:57:06.550Z,51.30
2019-04-22T02:01:13.685Z,51.50
2019-04-22T02:05:21.652Z,52.10
2019-04-22T02:09:24.088Z,55.50
2019-04-22T02:13:30.824Z,54.10
2019-04-22T02:17:41.537Z,53.20
2019-04-22T02:21:42.497Z,52.70
2019-04-22T02:25:59.238Z,52.40
2019-04-22T02:29:51.922Z,52.00
2019-04-22T02:34:13.847Z,52.30
2019-04-22T02:38:19.472Z,52.20
2019-04-22T02:42:14.221Z,52.90
2019-04-22T02:46:45.148Z,52.90
2019-04-22T02:50:28.581Z,53.10
2019-04-22T02:54:49.429Z,53.80
2019-04-22T03:15:07.870Z,54.50
2019-04-22T03:19:26.448Z,54.30
2019-04-22T03:23:36.071Z,54.10
2019-04-22T03:27:27.674Z,54.00
2019-04-22T03:36:05.776Z,53.60
2019-04-22T03:47:01.859Z,58.10
2019-04-22T03:51:12.019Z,63.00
2019-04-22T03:59:28.502Z,59.70
2019-04-22T04:03:19.128Z,58.80
2019-04-22T04:11:43.264Z,57.50
2019-04-22T04:15:32.926Z,57.30
2019-04-22T04:28:24.276Z,58.10
2019-04-22T04:32:20.719Z,57.60
2019-04-22T04:44:28.846Z,58.00
2019-04-22T04:48:36.975Z,59.20
2019-04-22T05:09:11.812Z,56.90
2019-04-22T05:17:15.763Z,57.30
2019-04-22T05:29:43.217Z,59.70
2019-04-22T05:33:34.935Z,60.00
2019-04-22T05:37:40.306Z,60.90
2019-04-22T05:41:43.107Z,60.40
2019-04-22T05:45:54.189Z,61.90
2019-04-22T05:54:01.329Z,60.60
2019-04-22T05:58:02.498Z,60.80
2019-04-22T06:02:23.429Z,61.70
2019-04-22T06:06:20.702Z,61.90
2019-04-22T06:10:29.335Z,61.10
2019-04-22T06:14:24.812Z,60.80
2019-04-22T06:18:34.816Z,61.80
2019-04-22T06:35:09.747Z,61.40
2019-04-22T06:39:18.448Z,63.00
2019-04-22T06:43:15.789Z,62.60
2019-04-22T06:47:38.012Z,62.60
2019-04-22T06:51:30.950Z,63.10
2019-04-22T06:55:35.630Z,63.70
2019-04-22T06:59:38.033Z,63.40
2019-04-22T07:03:58.500Z,63.70
2019-04-22T07:07:53.364Z,63.90
2019-04-22T07:12:02.237Z,62.80
2019-04-22T07:16:05.212Z,59.90
2019-04-22T07:20:10.706Z,57.10
2019-04-22T07:24:40.675Z,55.80
2019-04-22T07:28:20.263Z,55.80
2019-04-22T07:32:54.959Z,52.80
2019-04-22T07:40:43.854Z,51.90
2019-04-22T07:44:51.016Z,49.70
2019-04-22T07:49:10.497Z,49.50
2019-04-22T07:52:58.930Z,48.40
2019-04-22T07:57:15.355Z,49.40
2019-04-22T08:01:14.051Z,48.70
2019-04-22T08:05:22.454Z,48.30
2019-04-22T08:09:34.024Z,46.20
2019-04-22T08:21:46.289Z,45.80
2019-04-22T08:25:47.463Z,45.60
2019-04-22T08:34:08.171Z,44.60
2019-04-22T08:38:11.535Z,45.80
2019-04-22T08:42:29.436Z,48.20
2019-04-22T08:46:27.131Z,47.70
2019-04-22T08:50:26.755Z,49.40
2019-04-22T08:54:36.146Z,49.50
2019-04-22T08:58:48.760Z,50.80
2019-04-22T09:02:53.740Z,52.10
2019-04-22T09:07:10.482Z,53.00
2019-04-22T09:11:04.635Z,54.30
2019-04-22T09:15:04.568Z,54.40
2019-04-22T09:19:12.646Z,54.10
2019-04-22T09:23:28.423Z,54.50
2019-04-22T09:31:29.242Z,54.50
2019-04-22T09:35:49.878Z,55.30
2019-04-22T09:39:51.263Z,55.40
2019-04-22T09:43:53.621Z,55.60
2019-04-22T09:48:00.930Z,55.40
2019-04-22T09:52:08.434Z,55.30
2019-04-22T09:56:12.218Z,55.60
2019-04-22T10:00:13.995Z,54.50
2019-04-22T10:04:18.193Z,53.90
2019-04-22T10:08:31.685Z,54.20
2019-04-22T10:12:36.673Z,55.30
2019-04-22T10:16:44.978Z,53.80
2019-04-22T10:20:45.883Z,53.10
2019-04-22T10:24:53.615Z,51.80
2019-04-22T10:29:17.025Z,52.00
2019-04-22T10:33:03.051Z,52.80
2019-04-22T10:36:52.728Z,51.60
2019-04-22T10:40:52.681Z,52.70
2019-04-22T10:44:57.344Z,51.40
2019-04-22T10:49:02.027Z,51.90
2019-04-22T10:53:07.735Z,50.80
2019-04-22T10:57:12.272Z,50.80
2019-04-22T11:01:17.887Z,51.40
2019-04-22T11:05:22.492Z,50.50
2019-04-22T11:09:28.941Z,49.90
2019-04-22T11:13:35.654Z,50.00
2019-04-22T11:17:41.701Z,49.40
2019-04-22T11:21:57.696Z,47.90
2019-04-22T11:25:54.053Z,48.80
2019-04-22T11:29:59.474Z,46.70
2019-04-22T11:34:04.211Z,46.80
2019-04-22T11:38:08.900Z,48.40
2019-04-22T11:42:14.070Z,48.40
2019-04-22T11:46:18.878Z,47.30
2019-04-22T11:50:24.345Z,46.80
2019-04-22T11:54:28.915Z,47.00
2019-04-22T11:58:34.862Z,45.00
2019-04-22T12:02:40.931Z,45.80
2019-04-22T12:06:46.155Z,45.90
2019-04-22T12:10:55.399Z,43.70
2019-04-22T12:14:58.437Z,44.30
2019-04-22T12:19:03.384Z,44.20
2019-04-22T12:23:09.435Z,44.30
2019-04-22T12:27:16.962Z,44.70
2019-04-22T12:31:21.705Z,44.50
2019-04-22T12:35:26.456Z,42.70
2019-04-22T12:39:31.594Z,42.50
2019-04-22T12:43:37.326Z,42.10
2019-04-22T12:47:44.036Z,42.30
2019-04-22T12:51:49.257Z,43.60
2019-04-22T12:55:55.401Z,41.20
2019-04-22T13:00:01.744Z,40.30
2019-04-22T13:04:09.624Z,42.00
2019-04-22T13:08:13.750Z,40.70
2019-04-22T13:12:19.346Z,40.90
2019-04-22T13:16:24.980Z,41.00
2019-04-22T13:20:30.463Z,40.90
2019-04-22T13:24:36.165Z,41.00
2019-04-22T13:28:41.014Z,39.40
2019-04-22T13:32:46.964Z,38.90
2019-04-22T13:36:52.910Z,40.00
2019-04-22T13:41:07.237Z,38.00
2019-04-22T13:45:04.140Z,39.60
2019-04-22T13:49:46.233Z,38.50
2019-04-22T13:57:41.380Z,38.40
2019-04-22T14:01:36.664Z,38.00
2019-04-22T14:05:42.641Z,39.20
2019-04-22T14:09:48.630Z,41.00
2019-04-22T14:13:53.364Z,39.30
2019-04-22T14:17:58.817Z,39.40
2019-04-22T14:22:03.996Z,39.30
2019-04-22T14:26:09.162Z,41.70
2019-04-22T14:30:16.747Z,41.40
2019-04-22T14:34:21.421Z,40.70
2019-04-22T14:38:25.992Z,38.40
2019-04-22T14:42:51.531Z,38.40
2019-04-22T14:47:03.473Z,39.40
2019-04-22T14:51:05.937Z,39.00
2019-04-22T14:55:00.874Z,39.80
2019-04-22T14:58:56.615Z,40.50
2019-04-22T15:03:01.598Z,37.80
2019-04-22T15:07:08.570Z,38.90
2019-04-22T15:11:13.177Z,36.80
2019-04-22T15:15:43.397Z,36.20
2019-04-22T15:19:55.966Z,34.90
2019-04-22T15:24:20.597Z,34.80
2019-04-22T15:28:25.257Z,35.90
2019-04-22T15:32:29.913Z,36.30
2019-04-22T15:36:36.010Z,36.30
2019-04-22T15:40:40.770Z,36.40
2019-04-22T15:44:46.215Z,35.90
2019-04-22T15:48:51.850Z,35.90
2019-04-22T15:52:58.840Z,35.70
2019-04-22T15:57:02.675Z,35.50
2019-04-22T16:01:15.121Z,34.90
2019-04-22T16:05:14.815Z,35.50
2019-04-22T16:09:20.551Z,36.20
2019-04-22T16:13:28.766Z,36.50
2019-04-22T16:17:32.668Z,37.30
2019-04-22T16:21:42.422Z,35.60
2019-04-22T16:26:15.447Z,36.90
2019-04-22T16:30:21.522Z,36.20
2019-04-22T16:34:27.223Z,36.60
2019-04-22T16:38:37.466Z,36.60
2019-04-22T16:42:49.947Z,36.60
2019-04-22T16:46:49.982Z,36.50
2019-04-22T16:50:55.008Z,36.90
2019-04-22T16:55:01.078Z,37.20
2019-04-22T16:59:06.687Z,36.90
2019-04-22T17:03:22.816Z,37.40
2019-04-22T17:07:27.452Z,37.60
2019-04-22T17:11:32.024Z,37.20
2019-04-22T17:15:37.567Z,37.40
2019-04-22T17:19:42.242Z,37.30
2019-04-22T17:23:47.608Z,37.50
2019-04-22T17:27:52.392Z,36.90
2019-04-22T17:32:03.699Z,37.00
2019-04-22T17:36:03.393Z,37.10
2019-04-22T17:40:30.326Z,38.10
2019-04-22T17:44:58.844Z,38.00
2019-04-22T17:49:13.941Z,38.20
2019-04-22T17:53:23.007Z,38.90
2019-04-22T17:57:21.709Z,39.60
2019-04-22T18:01:29.748Z,39.70
2019-04-22T18:05:22.029Z,40.20
2019-04-22T18:10:14.074Z,40.50
2019-04-22T18:13:51.542Z,41.10
2019-04-22T18:18:03.662Z,41.50
2019-04-22T18:21:57.303Z,41.80
2019-04-22T18:26:08.153Z,42.00
2019-04-22T18:30:11.397Z,42.30
2019-04-22T18:34:19.124Z,42.60
2019-04-22T18:38:44.407Z,42.80
2019-04-22T18:42:26.865Z,43.00
2019-04-22T18:46:37.130Z,43.40
2019-04-22T18:50:56.243Z,43.60
2019-04-22T18:55:12.906Z,44.60
2019-04-22T18:59:10.449Z,44.70
2019-04-22T19:03:14.183Z,44.90
2019-04-22T19:07:42.031Z,45.60
2019-04-22T19:11:46.218Z,45.60
2019-04-22T19:15:53.893Z,45.90
2019-04-22T19:20:02.715Z,46.50
2019-04-22T19:24:01.510Z,46.30
2019-04-22T19:28:18.961Z,47.30
2019-04-22T19:32:13.006Z,47.60
2019-04-22T19:36:22.726Z,47.40
2019-04-22T19:40:42.033Z,47.30
2019-04-22T19:44:40.842Z,46.50
2019-04-22T19:48:44.962Z,46.10
2019-04-22T19:52:53.120Z,46.00
2019-04-22T19:56:45.620Z,46.20
2019-04-22T20:01:15.075Z,46.40
2019-04-22T20:05:50.939Z,45.90
2019-04-22T20:09:55.512Z,46.70
2019-04-22T20:14:03.215Z,47.00
2019-04-22T20:18:22.608Z,47.20
2019-04-22T20:22:14.322Z,46.30
2019-04-22T20:26:12.479Z,46.90
2019-04-22T20:30:28.247Z,47.10
2019-04-22T20:34:32.164Z,47.30
2019-04-22T20:38:35.435Z,47.30
2019-04-22T20:42:48.375Z,47.50
2019-04-22T20:46:49.021Z,47.50
2019-04-22T20:50:59.292Z,47.60
2019-04-22T20:54:58.860Z,47.70
2019-04-22T20:59:08.606Z,48.00
2019-04-22T21:03:06.246Z,48.30
2019-04-22T21:07:15.078Z,48.50
2019-04-22T21:11:24.837Z,48.60
2019-04-22T21:15:36.901Z,48.60
2019-04-22T21:19:46.490Z,48.80
2019-04-22T21:23:39.438Z,49.10
2019-04-22T21:27:58.229Z,49.40
2019-04-22T21:32:01.057Z,49.70
2019-04-22T21:36:14.966Z,49.90
2019-04-22T21:40:05.479Z,50.20
2019-04-22T21:44:14.328Z,50.30
2019-04-22T21:48:31.408Z,50.20
2019-04-22T21:52:27.981Z,50.80
2019-04-22T21:57:05.807Z,50.90
2019-04-22T22:01:21.895Z,50.70
2019-04-22T22:05:12.520Z,51.40
2019-04-22T22:09:25.518Z,51.30
2019-04-22T22:13:31.942Z,51.50
2019-04-22T22:17:31.006Z,52.00
2019-04-22T22:21:47.840Z,52.30
2019-04-22T22:25:43.689Z,52.20
2019-04-22T22:34:04.079Z,52.90
2019-04-22T22:38:05.274Z,53.20
2019-04-22T22:41:52.029Z,53.90
2019-04-22T22:46:11.934Z,53.90
2019-04-22T22:50:20.127Z,53.90
2019-04-22T22:54:31.759Z,54.00
2019-04-22T22:58:42.625Z,54.80
2019-04-22T23:02:48.596Z,55.40
2019-04-22T23:06:53.243Z,55.70
2019-04-22T23:11:03.555Z,56.20
2019-04-22T23:14:58.988Z,56.30
2019-04-22T23:19:01.993Z,56.30
2019-04-22T23:23:25.799Z,56.10
2019-04-22T23:27:40.419Z,56.60
2019-04-22T23:31:45.429Z,57.00
2019-04-22T23:36:00.312Z,56.50
2019-04-22T23:40:24.385Z,56.70
2019-04-22T23:44:19.548Z,56.40
2019-04-22T23:48:20.472Z,56.80
2019-04-22T23:52:35.697Z,57.20
2019-04-22T23:56:33.592Z,56.90
